KSUN

Friedman Memorial Airport

Hailey, Idaho, USA
KSUN 170353Z 1704/1806 14006KT 2SM -SN BKN018 OVC090 FM170900 VRB05KT 2SM -SN OVC008 FM171200 14006KT 6SM -RASN SCT008 OVC035 FM171800 19006KT 6SM -RASN SCT008 OVC015 AMD LTD TO CLD VIS AND WIND 1705/1713
Issued Valid From Valid To
Jan-17 @ 03:53 UTC
(60 minutes ago)
Jan-17 @ 04:00 UTC
(53 minutes ago)
Jan-18 @ 06:00 UTC
(-1 days ago)
Jan-17 @ 04:00 to Jan-17 @ 09:00
KSUN 170353Z 1704/1806 14006KT 2SM -SN BKN018 OVC090
Wind Visibility Clouds Conditions
140° at 6 knots 2 miles
  • Broken at 1,800' AGL
  • Overcast at 9,000' AGL
  • Light Snow
From Jan-17 @ 09:00 to Jan-17 @ 12:00
FM170900 VRB05KT 2SM -SN OVC008
Wind Visibility Clouds Conditions
Variable at 5 knots 2 miles
  • Overcast at 800' AGL
  • Light Snow
From Jan-17 @ 12:00 to Jan-17 @ 18:00
FM171200 14006KT 6SM -RASN SCT008 OVC035
Wind Visibility Clouds Conditions
140° at 6 knots 6 miles
  • Scattered at 800' AGL
  • Overcast at 3,500' AGL
  • Light Rain
  • Light Snow
From Jan-17 @ 18:00 to Jan-18 @ 06:00
FM171800 19006KT 6SM -RASN SCT008 OVC015 AMD LTD TO CLD VIS AND WIND 1705/1713
Wind Visibility Clouds Conditions
190° at 6 knots 6 miles
  • Scattered at 800' AGL
  • Overcast at 1,500' AGL
  • Light Rain
  • Light Snow
KSUN 170353Z 1704/1806 14006KT 2SM -SN BKN018 OVC090 FM170900 VRB05KT 2SM -SN OVC008 FM171200 14006KT 6SM -RASN SCT008 OVC035 FM171800 19006KT 6SM -RASN SCT008 OVC015 AMD LTD TO CLD VIS AND WIND 1705/1713
Issued Jan-17 @ 03:53 UTC
(60 minutes ago)
Valid From Jan-17 @ 04:00 UTC
(53 minutes ago)
Valid To Jan-18 @ 06:00 UTC
(-1 days ago)
Jan-17 @ 04:00 - Jan-17 @ 09:00
Wind Visibility
140° at 6 knots 2 miles
Clouds
  • Broken at 1,800' AGL
  • Overcast at 9,000' AGL
Conditions
  • Light Snow
From Jan-17 @ 09:00 - Jan-17 @ 12:00
Wind Visibility
Variable at 5 knots 2 miles
Clouds
  • Overcast at 800' AGL
Conditions
  • Light Snow
From Jan-17 @ 12:00 - Jan-17 @ 18:00
Wind Visibility
140° at 6 knots 6 miles
Clouds
  • Scattered at 800' AGL
  • Overcast at 3,500' AGL
Conditions
  • Light Rain
  • Light Snow
From Jan-17 @ 18:00 - Jan-18 @ 06:00
Wind Visibility
190° at 6 knots 6 miles
Clouds
  • Scattered at 800' AGL
  • Overcast at 1,500' AGL
Conditions
  • Light Rain
  • Light Snow